sensor_id;sensor_type;location;lat;lon;timestamp;P1;durP1;ratioP1;P2;durP2;ratioP2
4397;SDS011;2213;49.720;7.296;2023-05-02T00:01:29;6.17;;;2.37;;
4397;SDS011;2213;49.720;7.296;2023-05-02T00:03:58;5.10;;;1.93;;
4397;SDS011;2213;49.720;7.296;2023-05-02T00:06:29;2.17;;;1.97;;
4397;SDS011;2213;49.720;7.296;2023-05-02T00:08:59;5.10;;;2.30;;
4397;SDS011;2213;49.720;7.296;2023-05-02T00:11:29;3.17;;;2.30;;
4397;SDS011;2213;49.720;7.296;2023-05-02T00:13:59;3.40;;;2.23;;
4397;SDS011;2213;49.720;7.296;2023-05-02T00:16:29;3.77;;;1.87;;
4397;SDS011;2213;49.720;7.296;2023-05-02T00:18:59;2.73;;;2.50;;
4397;SDS011;2213;49.720;7.296;2023-05-02T00:21:29;7.93;;;2.33;;
4397;SDS011;2213;49.720;7.296;2023-05-02T00:24:01;2.83;;;2.53;;
4397;SDS011;2213;49.720;7.296;2023-05-02T00:26:31;3.03;;;2.40;;
4397;SDS011;2213;49.720;7.296;2023-05-02T00:29:01;4.63;;;2.33;;
4397;SDS011;2213;49.720;7.296;2023-05-02T00:31:31;2.37;;;2.00;;
4397;SDS011;2213;49.720;7.296;2023-05-02T00:34:01;3.70;;;2.60;;
4397;SDS011;2213;49.720;7.296;2023-05-02T00:36:31;2.60;;;2.30;;
4397;SDS011;2213;49.720;7.296;2023-05-02T00:39:03;2.57;;;1.90;;
4397;SDS011;2213;49.720;7.296;2023-05-02T00:41:32;2.50;;;1.97;;
4397;SDS011;2213;49.720;7.296;2023-05-02T00:44:02;6.47;;;4.27;;
4397;SDS011;2213;49.720;7.296;2023-05-02T00:46:32;14.87;;;7.97;;
4397;SDS011;2213;49.720;7.296;2023-05-02T00:49:02;2.43;;;2.23;;
4397;SDS011;2213;49.720;7.296;2023-05-02T00:51:32;2.63;;;2.43;;
4397;SDS011;2213;49.720;7.296;2023-05-02T00:54:02;2.40;;;1.80;;
4397;SDS011;2213;49.720;7.296;2023-05-02T00:56:33;2.33;;;2.10;;
4397;SDS011;2213;49.720;7.296;2023-05-02T00:59:04;2.37;;;2.17;;
4397;SDS011;2213;49.720;7.296;2023-05-02T01:01:35;3.27;;;2.63;;
4397;SDS011;2213;49.720;7.296;2023-05-02T01:04:20;3.20;;;2.40;;
4397;SDS011;2213;49.720;7.296;2023-05-02T01:07:09;4.27;;;2.23;;
4397;SDS011;2213;49.720;7.296;2023-05-02T01:10:08;5.93;;;2.50;;
4397;SDS011;2213;49.720;7.296;2023-05-02T01:12:53;3.37;;;2.03;;
4397;SDS011;2213;49.720;7.296;2023-05-02T01:15:30;5.80;;;2.47;;
4397;SDS011;2213;49.720;7.296;2023-05-02T01:18:05;3.10;;;2.50;;
4397;SDS011;2213;49.720;7.296;2023-05-02T01:20:39;4.63;;;2.90;;
4397;SDS011;2213;49.720;7.296;2023-05-02T01:23:14;4.10;;;2.40;;
4397;SDS011;2213;49.720;7.296;2023-05-02T01:26:02;2.13;;;1.93;;
4397;SDS011;2213;49.720;7.296;2023-05-02T01:28:56;3.07;;;2.60;;
4397;SDS011;2213;49.720;7.296;2023-05-02T01:31:30;5.60;;;2.60;;
4397;SDS011;2213;49.720;7.296;2023-05-02T01:34:05;2.50;;;2.30;;
4397;SDS011;2213;49.720;7.296;2023-05-02T01:36:40;4.87;;;3.43;;
4397;SDS011;2213;49.720;7.296;2023-05-02T01:39:13;4.50;;;2.80;;
4397;SDS011;2213;49.720;7.296;2023-05-02T01:41:48;4.23;;;2.20;;
4397;SDS011;2213;49.720;7.296;2023-05-02T01:44:21;6.10;;;2.73;;
4397;SDS011;2213;49.720;7.296;2023-05-02T01:46:52;3.93;;;2.87;;
4397;SDS011;2213;49.720;7.296;2023-05-02T01:49:25;5.10;;;2.50;;
4397;SDS011;2213;49.720;7.296;2023-05-02T01:51:58;3.70;;;2.73;;
4397;SDS011;2213;49.720;7.296;2023-05-02T01:54:37;3.83;;;3.03;;
4397;SDS011;2213;49.720;7.296;2023-05-02T01:57:08;3.27;;;2.97;;
4397;SDS011;2213;49.720;7.296;2023-05-02T01:59:40;8.33;;;3.43;;
4397;SDS011;2213;49.720;7.296;2023-05-02T02:02:14;7.07;;;3.20;;
4397;SDS011;2213;49.720;7.296;2023-05-02T02:04:44;5.33;;;3.90;;
4397;SDS011;2213;49.720;7.296;2023-05-02T02:07:16;6.17;;;3.30;;
4397;SDS011;2213;49.720;7.296;2023-05-02T02:09:46;3.60;;;3.10;;
4397;SDS011;2213;49.720;7.296;2023-05-02T02:12:19;3.37;;;3.00;;
4397;SDS011;2213;49.720;7.296;2023-05-02T02:14:58;9.60;;;4.03;;
4397;SDS011;2213;49.720;7.296;2023-05-02T02:17:39;6.23;;;3.90;;
4397;SDS011;2213;49.720;7.296;2023-05-02T02:20:15;4.30;;;3.00;;
4397;SDS011;2213;49.720;7.296;2023-05-02T02:22:46;4.20;;;3.33;;
4397;SDS011;2213;49.720;7.296;2023-05-02T02:25:17;4.77;;;3.50;;
4397;SDS011;2213;49.720;7.296;2023-05-02T02:27:47;3.77;;;3.47;;
4397;SDS011;2213;49.720;7.296;2023-05-02T02:30:18;4.70;;;3.93;;
4397;SDS011;2213;49.720;7.296;2023-05-02T02:32:47;5.80;;;4.30;;
4397;SDS011;2213;49.720;7.296;2023-05-02T02:35:18;5.73;;;4.20;;
4397;SDS011;2213;49.720;7.296;2023-05-02T02:37:50;5.27;;;4.07;;
4397;SDS011;2213;49.720;7.296;2023-05-02T02:40:33;5.37;;;4.17;;
4397;SDS011;2213;49.720;7.296;2023-05-02T02:43:14;5.20;;;4.20;;
4397;SDS011;2213;49.720;7.296;2023-05-02T02:46:13;4.13;;;3.53;;
4397;SDS011;2213;49.720;7.296;2023-05-02T02:49:03;5.63;;;4.17;;
4397;SDS011;2213;49.720;7.296;2023-05-02T02:51:50;4.37;;;3.97;;
4397;SDS011;2213;49.720;7.296;2023-05-02T02:54:31;4.93;;;4.13;;
4397;SDS011;2213;49.720;7.296;2023-05-02T02:57:13;4.47;;;3.80;;
4397;SDS011;2213;49.720;7.296;2023-05-02T02:59:48;4.30;;;3.80;;
4397;SDS011;2213;49.720;7.296;2023-05-02T03:02:31;6.20;;;4.57;;
4397;SDS011;2213;49.720;7.296;2023-05-02T03:05:02;4.53;;;4.00;;
4397;SDS011;2213;49.720;7.296;2023-05-02T03:07:37;5.73;;;4.30;;
4397;SDS011;2213;49.720;7.296;2023-05-02T03:10:08;4.30;;;3.87;;
4397;SDS011;2213;49.720;7.296;2023-05-02T03:12:37;7.60;;;4.30;;
4397;SDS011;2213;49.720;7.296;2023-05-02T03:15:13;5.33;;;4.30;;
4397;SDS011;2213;49.720;7.296;2023-05-02T03:17:58;4.63;;;4.13;;
4397;SDS011;2213;49.720;7.296;2023-05-02T03:20:29;6.50;;;5.13;;
4397;SDS011;2213;49.720;7.296;2023-05-02T03:22:58;9.10;;;5.23;;
4397;SDS011;2213;49.720;7.296;2023-05-02T03:25:27;6.70;;;5.20;;
4397;SDS011;2213;49.720;7.296;2023-05-02T03:27:57;5.10;;;4.30;;
4397;SDS011;2213;49.720;7.296;2023-05-02T03:30:26;6.07;;;4.80;;
4397;SDS011;2213;49.720;7.296;2023-05-02T03:32:57;10.10;;;5.20;;
4397;SDS011;2213;49.720;7.296;2023-05-02T03:35:28;7.50;;;5.10;;
4397;SDS011;2213;49.720;7.296;2023-05-02T03:37:57;5.77;;;4.93;;
4397;SDS011;2213;49.720;7.296;2023-05-02T03:40:27;9.93;;;7.27;;
4397;SDS011;2213;49.720;7.296;2023-05-02T03:42:57;8.03;;;5.80;;
4397;SDS011;2213;49.720;7.296;2023-05-02T03:45:28;9.63;;;6.13;;
4397;SDS011;2213;49.720;7.296;2023-05-02T03:47:59;5.73;;;5.13;;
4397;SDS011;2213;49.720;7.296;2023-05-02T03:50:29;7.67;;;5.57;;
4397;SDS011;2213;49.720;7.296;2023-05-02T03:52:59;6.20;;;5.03;;
4397;SDS011;2213;49.720;7.296;2023-05-02T03:55:29;11.67;;;6.50;;
4397;SDS011;2213;49.720;7.296;2023-05-02T03:57:59;8.40;;;5.40;;
4397;SDS011;2213;49.720;7.296;2023-05-02T04:00:28;8.07;;;5.67;;
4397;SDS011;2213;49.720;7.296;2023-05-02T04:03:02;5.30;;;4.30;;
4397;SDS011;2213;49.720;7.296;2023-05-02T04:05:31;11.70;;;5.43;;
4397;SDS011;2213;49.720;7.296;2023-05-02T04:08:02;6.27;;;4.90;;
4397;SDS011;2213;49.720;7.296;2023-05-02T04:10:33;9.20;;;6.30;;
4397;SDS011;2213;49.720;7.296;2023-05-02T04:13:03;9.53;;;5.47;;
4397;SDS011;2213;49.720;7.296;2023-05-02T04:15:33;6.90;;;5.60;;
4397;SDS011;2213;49.720;7.296;2023-05-02T04:18:04;10.93;;;6.37;;
4397;SDS011;2213;49.720;7.296;2023-05-02T04:20:33;11.40;;;6.70;;
4397;SDS011;2213;49.720;7.296;2023-05-02T04:23:04;8.80;;;6.40;;
4397;SDS011;2213;49.720;7.296;2023-05-02T04:25:34;11.10;;;6.73;;
4397;SDS011;2213;49.720;7.296;2023-05-02T04:28:05;10.40;;;6.63;;
4397;SDS011;2213;49.720;7.296;2023-05-02T04:30:35;9.43;;;7.17;;
4397;SDS011;2213;49.720;7.296;2023-05-02T04:33:06;15.37;;;8.50;;
4397;SDS011;2213;49.720;7.296;2023-05-02T04:35:38;11.20;;;7.77;;
4397;SDS011;2213;49.720;7.296;2023-05-02T04:38:09;10.57;;;7.40;;
4397;SDS011;2213;49.720;7.296;2023-05-02T04:40:39;11.80;;;7.13;;
4397;SDS011;2213;49.720;7.296;2023-05-02T04:43:10;12.07;;;7.80;;
4397;SDS011;2213;49.720;7.296;2023-05-02T04:45:40;10.67;;;7.50;;
4397;SDS011;2213;49.720;7.296;2023-05-02T04:48:11;13.50;;;7.50;;
4397;SDS011;2213;49.720;7.296;2023-05-02T04:50:43;12.30;;;8.73;;
4397;SDS011;2213;49.720;7.296;2023-05-02T04:53:12;18.67;;;9.63;;
4397;SDS011;2213;49.720;7.296;2023-05-02T04:55:42;16.40;;;10.30;;
4397;SDS011;2213;49.720;7.296;2023-05-02T04:58:11;16.30;;;10.23;;
4397;SDS011;2213;49.720;7.296;2023-05-02T05:00:41;19.43;;;10.50;;
4397;SDS011;2213;49.720;7.296;2023-05-02T05:03:12;16.47;;;11.10;;
4397;SDS011;2213;49.720;7.296;2023-05-02T05:05:41;15.40;;;10.43;;
4397;SDS011;2213;49.720;7.296;2023-05-02T05:08:10;18.70;;;11.03;;
4397;SDS011;2213;49.720;7.296;2023-05-02T05:10:40;23.50;;;11.23;;
4397;SDS011;2213;49.720;7.296;2023-05-02T05:13:10;19.00;;;10.80;;
4397;SDS011;2213;49.720;7.296;2023-05-02T05:15:39;28.63;;;12.33;;
4397;SDS011;2213;49.720;7.296;2023-05-02T05:18:11;15.70;;;10.77;;
4397;SDS011;2213;49.720;7.296;2023-05-02T05:20:41;19.87;;;12.00;;
4397;SDS011;2213;49.720;7.296;2023-05-02T05:23:12;16.90;;;11.20;;
4397;SDS011;2213;49.720;7.296;2023-05-02T05:25:42;17.73;;;11.43;;
4397;SDS011;2213;49.720;7.296;2023-05-02T05:28:12;25.60;;;12.70;;
4397;SDS011;2213;49.720;7.296;2023-05-02T05:30:44;18.90;;;12.10;;
4397;SDS011;2213;49.720;7.296;2023-05-02T05:33:16;18.10;;;11.10;;
4397;SDS011;2213;49.720;7.296;2023-05-02T05:35:46;24.07;;;12.00;;
4397;SDS011;2213;49.720;7.296;2023-05-02T05:38:15;21.70;;;12.33;;
4397;SDS011;2213;49.720;7.296;2023-05-02T05:40:48;17.90;;;11.93;;
4397;SDS011;2213;49.720;7.296;2023-05-02T05:43:17;17.13;;;10.47;;
4397;SDS011;2213;49.720;7.296;2023-05-02T05:45:48;21.73;;;10.83;;
4397;SDS011;2213;49.720;7.296;2023-05-02T05:48:21;18.77;;;11.37;;
4397;SDS011;2213;49.720;7.296;2023-05-02T05:50:51;21.00;;;13.60;;
4397;SDS011;2213;49.720;7.296;2023-05-02T05:53:20;25.80;;;15.23;;
4397;SDS011;2213;49.720;7.296;2023-05-02T05:55:49;28.10;;;16.20;;
4397;SDS011;2213;49.720;7.296;2023-05-02T05:58:18;37.13;;;19.67;;
4397;SDS011;2213;49.720;7.296;2023-05-02T06:00:48;35.83;;;18.03;;
4397;SDS011;2213;49.720;7.296;2023-05-02T06:03:18;41.50;;;20.80;;
4397;SDS011;2213;49.720;7.296;2023-05-02T06:05:50;36.80;;;20.93;;
4397;SDS011;2213;49.720;7.296;2023-05-02T06:08:20;35.13;;;17.40;;
4397;SDS011;2213;49.720;7.296;2023-05-02T06:10:51;29.60;;;16.57;;
4397;SDS011;2213;49.720;7.296;2023-05-02T06:13:20;28.23;;;16.63;;
4397;SDS011;2213;49.720;7.296;2023-05-02T06:15:51;29.13;;;17.00;;
4397;SDS011;2213;49.720;7.296;2023-05-02T06:18:23;36.60;;;20.87;;
4397;SDS011;2213;49.720;7.296;2023-05-02T06:20:53;38.20;;;21.67;;
4397;SDS011;2213;49.720;7.296;2023-05-02T06:23:24;46.87;;;23.43;;
4397;SDS011;2213;49.720;7.296;2023-05-02T06:25:57;42.20;;;21.40;;
4397;SDS011;2213;49.720;7.296;2023-05-02T06:28:27;44.27;;;21.93;;
4397;SDS011;2213;49.720;7.296;2023-05-02T06:30:58;33.67;;;18.63;;
4397;SDS011;2213;49.720;7.296;2023-05-02T06:33:31;36.50;;;20.23;;
4397;SDS011;2213;49.720;7.296;2023-05-02T06:36:01;33.90;;;18.67;;
4397;SDS011;2213;49.720;7.296;2023-05-02T06:38:32;35.43;;;19.00;;
4397;SDS011;2213;49.720;7.296;2023-05-02T06:41:02;43.03;;;17.80;;
4397;SDS011;2213;49.720;7.296;2023-05-02T06:43:32;38.57;;;19.33;;
4397;SDS011;2213;49.720;7.296;2023-05-02T06:46:02;36.23;;;17.57;;
4397;SDS011;2213;49.720;7.296;2023-05-02T06:48:35;32.63;;;18.20;;
4397;SDS011;2213;49.720;7.296;2023-05-02T06:51:05;32.17;;;16.70;;
4397;SDS011;2213;49.720;7.296;2023-05-02T06:53:34;33.40;;;16.53;;
4397;SDS011;2213;49.720;7.296;2023-05-02T06:56:05;27.43;;;16.80;;
4397;SDS011;2213;49.720;7.296;2023-05-02T06:58:35;28.03;;;15.40;;
4397;SDS011;2213;49.720;7.296;2023-05-02T07:01:05;28.53;;;15.87;;
4397;SDS011;2213;49.720;7.296;2023-05-02T07:03:36;25.73;;;14.53;;
4397;SDS011;2213;49.720;7.296;2023-05-02T07:06:07;27.87;;;15.97;;
4397;SDS011;2213;49.720;7.296;2023-05-02T07:08:36;27.63;;;16.73;;
4397;SDS011;2213;49.720;7.296;2023-05-02T07:11:06;29.00;;;14.70;;
4397;SDS011;2213;49.720;7.296;2023-05-02T07:13:35;30.30;;;15.20;;
4397;SDS011;2213;49.720;7.296;2023-05-02T07:16:05;23.67;;;13.87;;
4397;SDS011;2213;49.720;7.296;2023-05-02T07:18:37;25.70;;;14.30;;
4397;SDS011;2213;49.720;7.296;2023-05-02T07:21:08;25.33;;;13.57;;
4397;SDS011;2213;49.720;7.296;2023-05-02T07:23:38;23.70;;;14.27;;
4397;SDS011;2213;49.720;7.296;2023-05-02T07:26:08;26.40;;;14.10;;
4397;SDS011;2213;49.720;7.296;2023-05-02T07:28:38;24.00;;;14.40;;
4397;SDS011;2213;49.720;7.296;2023-05-02T07:31:09;26.73;;;13.40;;
4397;SDS011;2213;49.720;7.296;2023-05-02T07:33:39;24.90;;;13.67;;
4397;SDS011;2213;49.720;7.296;2023-05-02T07:36:08;44.37;;;22.00;;
4397;SDS011;2213;49.720;7.296;2023-05-02T07:38:39;22.10;;;13.27;;
4397;SDS011;2213;49.720;7.296;2023-05-02T07:41:10;22.90;;;11.40;;
4397;SDS011;2213;49.720;7.296;2023-05-02T07:43:41;25.40;;;13.13;;
4397;SDS011;2213;49.720;7.296;2023-05-02T07:46:11;22.03;;;10.37;;
4397;SDS011;2213;49.720;7.296;2023-05-02T07:48:42;22.00;;;12.20;;
4397;SDS011;2213;49.720;7.296;2023-05-02T07:51:12;15.80;;;9.90;;
4397;SDS011;2213;49.720;7.296;2023-05-02T07:53:42;21.63;;;12.43;;
4397;SDS011;2213;49.720;7.296;2023-05-02T07:56:12;17.80;;;10.00;;
4397;SDS011;2213;49.720;7.296;2023-05-02T07:58:42;24.17;;;11.97;;
4397;SDS011;2213;49.720;7.296;2023-05-02T08:01:12;18.77;;;10.67;;
4397;SDS011;2213;49.720;7.296;2023-05-02T08:03:44;23.40;;;11.80;;
4397;SDS011;2213;49.720;7.296;2023-05-02T08:06:15;22.67;;;11.93;;
4397;SDS011;2213;49.720;7.296;2023-05-02T08:08:45;21.47;;;12.27;;
4397;SDS011;2213;49.720;7.296;2023-05-02T08:11:14;20.47;;;12.00;;
4397;SDS011;2213;49.720;7.296;2023-05-02T08:13:44;25.53;;;13.10;;
4397;SDS011;2213;49.720;7.296;2023-05-02T08:16:14;20.87;;;11.67;;
4397;SDS011;2213;49.720;7.296;2023-05-02T08:18:45;22.33;;;11.40;;
4397;SDS011;2213;49.720;7.296;2023-05-02T08:21:14;20.20;;;11.60;;
4397;SDS011;2213;49.720;7.296;2023-05-02T08:23:46;25.20;;;12.60;;
4397;SDS011;2213;49.720;7.296;2023-05-02T08:26:16;20.70;;;11.03;;
4397;SDS011;2213;49.720;7.296;2023-05-02T08:28:48;24.40;;;11.87;;
4397;SDS011;2213;49.720;7.296;2023-05-02T08:31:18;17.97;;;10.47;;
4397;SDS011;2213;49.720;7.296;2023-05-02T08:33:49;16.57;;;9.67;;
4397;SDS011;2213;49.720;7.296;2023-05-02T08:36:19;17.33;;;9.53;;
4397;SDS011;2213;49.720;7.296;2023-05-02T08:38:49;16.17;;;9.03;;
4397;SDS011;2213;49.720;7.296;2023-05-02T08:41:20;24.13;;;9.80;;
4397;SDS011;2213;49.720;7.296;2023-05-02T08:43:51;18.20;;;8.73;;
4397;SDS011;2213;49.720;7.296;2023-05-02T08:46:22;18.90;;;8.90;;
4397;SDS011;2213;49.720;7.296;2023-05-02T08:48:54;13.57;;;8.03;;
4397;SDS011;2213;49.720;7.296;2023-05-02T08:51:26;12.33;;;6.93;;
4397;SDS011;2213;49.720;7.296;2023-05-02T08:53:59;9.90;;;6.40;;
4397;SDS011;2213;49.720;7.296;2023-05-02T08:56:31;11.77;;;7.07;;
4397;SDS011;2213;49.720;7.296;2023-05-02T08:59:01;17.20;;;6.73;;
4397;SDS011;2213;49.720;7.296;2023-05-02T09:01:31;15.20;;;7.73;;
4397;SDS011;2213;49.720;7.296;2023-05-02T09:04:04;17.53;;;5.80;;
4397;SDS011;2213;49.720;7.296;2023-05-02T09:06:34;8.00;;;5.37;;
4397;SDS011;2213;49.720;7.296;2023-05-02T09:09:05;13.40;;;5.57;;
4397;SDS011;2213;49.720;7.296;2023-05-02T09:11:33;7.43;;;4.77;;
4397;SDS011;2213;49.720;7.296;2023-05-02T09:14:05;9.10;;;5.47;;
4397;SDS011;2213;49.720;7.296;2023-05-02T09:16:44;9.60;;;5.33;;
4397;SDS011;2213;49.720;7.296;2023-05-02T09:19:23;10.10;;;5.67;;
4397;SDS011;2213;49.720;7.296;2023-05-02T09:21:58;10.53;;;6.20;;
4397;SDS011;2213;49.720;7.296;2023-05-02T09:24:29;10.83;;;6.40;;
4397;SDS011;2213;49.720;7.296;2023-05-02T09:26:59;7.33;;;5.00;;
4397;SDS011;2213;49.720;7.296;2023-05-02T09:29:31;13.47;;;5.93;;
4397;SDS011;2213;49.720;7.296;2023-05-02T09:32:04;17.17;;;9.70;;
4397;SDS011;2213;49.720;7.296;2023-05-02T09:34:34;12.10;;;6.87;;
4397;SDS011;2213;49.720;7.296;2023-05-02T09:37:05;10.97;;;5.93;;
4397;SDS011;2213;49.720;7.296;2023-05-02T09:39:38;9.73;;;5.70;;
4397;SDS011;2213;49.720;7.296;2023-05-02T09:42:08;11.30;;;6.00;;
4397;SDS011;2213;49.720;7.296;2023-05-02T09:44:38;14.27;;;7.03;;
4397;SDS011;2213;49.720;7.296;2023-05-02T09:47:10;12.10;;;6.10;;
4397;SDS011;2213;49.720;7.296;2023-05-02T09:49:55;13.50;;;6.43;;
4397;SDS011;2213;49.720;7.296;2023-05-02T09:52:25;11.40;;;6.60;;
4397;SDS011;2213;49.720;7.296;2023-05-02T09:54:55;10.87;;;6.40;;
4397;SDS011;2213;49.720;7.296;2023-05-02T09:57:38;9.33;;;6.03;;
4397;SDS011;2213;49.720;7.296;2023-05-02T10:00:08;10.87;;;6.40;;
4397;SDS011;2213;49.720;7.296;2023-05-02T10:02:45;11.80;;;5.87;;
4397;SDS011;2213;49.720;7.296;2023-05-02T10:05:19;8.93;;;4.70;;
4397;SDS011;2213;49.720;7.296;2023-05-02T10:07:53;10.17;;;5.80;;
4397;SDS011;2213;49.720;7.296;2023-05-02T10:10:24;10.47;;;5.93;;
4397;SDS011;2213;49.720;7.296;2023-05-02T10:12:54;8.53;;;5.00;;
4397;SDS011;2213;49.720;7.296;2023-05-02T10:15:24;9.30;;;5.57;;
4397;SDS011;2213;49.720;7.296;2023-05-02T10:17:58;29.40;;;16.17;;
4397;SDS011;2213;49.720;7.296;2023-05-02T10:20:33;13.97;;;7.10;;
4397;SDS011;2213;49.720;7.296;2023-05-02T10:23:10;10.63;;;5.73;;
4397;SDS011;2213;49.720;7.296;2023-05-02T10:25:43;10.20;;;6.40;;
4397;SDS011;2213;49.720;7.296;2023-05-02T10:28:14;11.10;;;6.63;;
4397;SDS011;2213;49.720;7.296;2023-05-02T10:30:43;9.90;;;5.83;;
4397;SDS011;2213;49.720;7.296;2023-05-02T10:33:16;11.50;;;6.43;;
4397;SDS011;2213;49.720;7.296;2023-05-02T10:35:47;11.50;;;6.10;;
4397;SDS011;2213;49.720;7.296;2023-05-02T10:38:18;14.33;;;6.40;;
4397;SDS011;2213;49.720;7.296;2023-05-02T10:40:51;10.47;;;6.03;;
4397;SDS011;2213;49.720;7.296;2023-05-02T10:43:30;10.43;;;6.13;;
4397;SDS011;2213;49.720;7.296;2023-05-02T10:46:09;9.57;;;5.80;;
4397;SDS011;2213;49.720;7.296;2023-05-02T10:49:02;9.80;;;4.90;;
4397;SDS011;2213;49.720;7.296;2023-05-02T10:51:36;13.97;;;9.77;;
4397;SDS011;2213;49.720;7.296;2023-05-02T10:54:17;12.43;;;6.33;;
4397;SDS011;2213;49.720;7.296;2023-05-02T10:57:01;8.90;;;5.37;;
4397;SDS011;2213;49.720;7.296;2023-05-02T10:59:53;7.70;;;4.43;;
4397;SDS011;2213;49.720;7.296;2023-05-02T11:02:46;21.33;;;9.63;;
4397;SDS011;2213;49.720;7.296;2023-05-02T11:05:17;9.50;;;5.20;;
4397;SDS011;2213;49.720;7.296;2023-05-02T11:07:47;9.17;;;4.07;;
4397;SDS011;2213;49.720;7.296;2023-05-02T11:10:24;5.33;;;3.60;;
4397;SDS011;2213;49.720;7.296;2023-05-02T11:12:56;4.93;;;3.00;;
4397;SDS011;2213;49.720;7.296;2023-05-02T11:18:23;8.23;;;3.63;;
4397;SDS011;2213;49.720;7.296;2023-05-02T11:21:23;5.73;;;3.20;;
4397;SDS011;2213;49.720;7.296;2023-05-02T11:30:10;9.20;;;4.70;;
4397;SDS011;2213;49.720;7.296;2023-05-02T11:35:43;5.70;;;3.17;;
4397;SDS011;2213;49.720;7.296;2023-05-02T11:38:17;7.80;;;3.90;;
4397;SDS011;2213;49.720;7.296;2023-05-02T11:40:50;9.33;;;4.47;;
4397;SDS011;2213;49.720;7.296;2023-05-02T11:43:22;5.20;;;3.90;;
4397;SDS011;2213;49.720;7.296;2023-05-02T11:45:57;6.53;;;3.30;;
4397;SDS011;2213;49.720;7.296;2023-05-02T11:48:28;8.00;;;4.50;;
4397;SDS011;2213;49.720;7.296;2023-05-02T11:50:59;6.50;;;3.87;;
4397;SDS011;2213;49.720;7.296;2023-05-02T11:53:33;5.80;;;3.87;;
4397;SDS011;2213;49.720;7.296;2023-05-02T11:56:10;8.43;;;3.43;;
4397;SDS011;2213;49.720;7.296;2023-05-02T11:58:41;3.67;;;2.60;;
4397;SDS011;2213;49.720;7.296;2023-05-02T12:01:12;4.50;;;2.70;;
4397;SDS011;2213;49.720;7.296;2023-05-02T12:03:43;5.33;;;3.23;;
4397;SDS011;2213;49.720;7.296;2023-05-02T12:06:15;6.87;;;2.80;;
4397;SDS011;2213;49.720;7.296;2023-05-02T12:08:46;6.07;;;3.60;;
4397;SDS011;2213;49.720;7.296;2023-05-02T12:11:22;7.37;;;3.53;;
4397;SDS011;2213;49.720;7.296;2023-05-02T12:13:52;4.73;;;3.10;;
4397;SDS011;2213;49.720;7.296;2023-05-02T12:16:23;4.87;;;3.20;;
4397;SDS011;2213;49.720;7.296;2023-05-02T12:18:54;5.83;;;4.07;;
4397;SDS011;2213;49.720;7.296;2023-05-02T12:21:24;6.47;;;4.13;;
4397;SDS011;2213;49.720;7.296;2023-05-02T12:23:56;6.83;;;3.50;;
4397;SDS011;2213;49.720;7.296;2023-05-02T12:26:28;7.43;;;3.57;;
4397;SDS011;2213;49.720;7.296;2023-05-02T12:28:59;6.53;;;3.60;;
4397;SDS011;2213;49.720;7.296;2023-05-02T12:31:29;6.17;;;3.67;;
4397;SDS011;2213;49.720;7.296;2023-05-02T12:33:58;9.13;;;4.87;;
4397;SDS011;2213;49.720;7.296;2023-05-02T12:36:27;3.63;;;2.60;;
4397;SDS011;2213;49.720;7.296;2023-05-02T12:38:57;5.20;;;3.73;;
4397;SDS011;2213;49.720;7.296;2023-05-02T12:41:32;6.97;;;3.70;;
4397;SDS011;2213;49.720;7.296;2023-05-02T12:44:03;4.20;;;2.80;;
4397;SDS011;2213;49.720;7.296;2023-05-02T12:46:33;3.23;;;2.60;;
4397;SDS011;2213;49.720;7.296;2023-05-02T12:49:03;3.20;;;2.10;;
4397;SDS011;2213;49.720;7.296;2023-05-02T12:51:35;3.17;;;2.43;;
4397;SDS011;2213;49.720;7.296;2023-05-02T12:54:06;2.13;;;1.67;;
4397;SDS011;2213;49.720;7.296;2023-05-02T12:56:48;5.53;;;2.13;;
4397;SDS011;2213;49.720;7.296;2023-05-02T12:59:25;2.93;;;1.80;;
4397;SDS011;2213;49.720;7.296;2023-05-02T13:01:56;1.73;;;1.50;;
4397;SDS011;2213;49.720;7.296;2023-05-02T13:04:34;5.70;;;1.70;;
4397;SDS011;2213;49.720;7.296;2023-05-02T13:07:06;2.17;;;1.50;;
4397;SDS011;2213;49.720;7.296;2023-05-02T13:09:37;2.60;;;1.70;;
4397;SDS011;2213;49.720;7.296;2023-05-02T13:12:08;2.40;;;1.90;;
4397;SDS011;2213;49.720;7.296;2023-05-02T13:14:39;3.10;;;1.70;;
4397;SDS011;2213;49.720;7.296;2023-05-02T13:17:09;1.83;;;1.43;;
4397;SDS011;2213;49.720;7.296;2023-05-02T13:19:38;2.10;;;1.43;;
4397;SDS011;2213;49.720;7.296;2023-05-02T13:22:27;2.20;;;1.30;;
4397;SDS011;2213;49.720;7.296;2023-05-02T13:24:57;1.33;;;1.10;;
4397;SDS011;2213;49.720;7.296;2023-05-02T13:27:27;1.90;;;1.30;;
4397;SDS011;2213;49.720;7.296;2023-05-02T13:29:57;3.00;;;1.30;;
4397;SDS011;2213;49.720;7.296;2023-05-02T13:32:31;1.60;;;1.17;;
4397;SDS011;2213;49.720;7.296;2023-05-02T13:35:02;1.20;;;1.10;;
4397;SDS011;2213;49.720;7.296;2023-05-02T13:37:31;1.90;;;1.10;;
4397;SDS011;2213;49.720;7.296;2023-05-02T13:40:01;1.87;;;1.10;;
4397;SDS011;2213;49.720;7.296;2023-05-02T13:42:32;2.37;;;1.00;;
4397;SDS011;2213;49.720;7.296;2023-05-02T13:45:03;2.60;;;1.50;;
4397;SDS011;2213;49.720;7.296;2023-05-02T13:47:35;1.30;;;1.20;;
4397;SDS011;2213;49.720;7.296;2023-05-02T13:50:07;1.10;;;0.90;;
4397;SDS011;2213;49.720;7.296;2023-05-02T13:52:38;2.80;;;1.57;;
4397;SDS011;2213;49.720;7.296;2023-05-02T13:55:08;1.53;;;1.40;;
4397;SDS011;2213;49.720;7.296;2023-05-02T13:57:39;1.50;;;1.20;;
4397;SDS011;2213;49.720;7.296;2023-05-02T14:00:10;2.63;;;1.40;;
4397;SDS011;2213;49.720;7.296;2023-05-02T14:02:41;2.20;;;1.47;;
4397;SDS011;2213;49.720;7.296;2023-05-02T14:05:12;1.30;;;1.20;;
4397;SDS011;2213;49.720;7.296;2023-05-02T14:07:41;1.43;;;1.27;;
4397;SDS011;2213;49.720;7.296;2023-05-02T14:10:12;1.27;;;1.03;;
4397;SDS011;2213;49.720;7.296;2023-05-02T14:12:43;2.13;;;1.33;;
4397;SDS011;2213;49.720;7.296;2023-05-02T14:15:13;1.30;;;1.20;;
4397;SDS011;2213;49.720;7.296;2023-05-02T14:17:44;1.97;;;1.20;;
4397;SDS011;2213;49.720;7.296;2023-05-02T14:20:14;1.47;;;1.37;;
4397;SDS011;2213;49.720;7.296;2023-05-02T14:22:44;1.70;;;1.53;;
4397;SDS011;2213;49.720;7.296;2023-05-02T14:25:15;1.50;;;1.20;;
4397;SDS011;2213;49.720;7.296;2023-05-02T14:27:47;1.63;;;1.43;;
4397;SDS011;2213;49.720;7.296;2023-05-02T14:30:18;1.67;;;1.30;;
4397;SDS011;2213;49.720;7.296;2023-05-02T14:32:50;1.97;;;1.40;;
4397;SDS011;2213;49.720;7.296;2023-05-02T14:35:20;2.13;;;1.63;;
4397;SDS011;2213;49.720;7.296;2023-05-02T14:37:51;2.10;;;1.50;;
4397;SDS011;2213;49.720;7.296;2023-05-02T14:40:21;1.30;;;1.20;;
4397;SDS011;2213;49.720;7.296;2023-05-02T14:42:51;2.37;;;1.70;;
4397;SDS011;2213;49.720;7.296;2023-05-02T14:45:20;2.20;;;1.43;;
4397;SDS011;2213;49.720;7.296;2023-05-02T14:47:51;2.63;;;1.60;;
4397;SDS011;2213;49.720;7.296;2023-05-02T14:50:22;2.00;;;1.70;;
4397;SDS011;2213;49.720;7.296;2023-05-02T14:52:52;3.03;;;2.23;;
4397;SDS011;2213;49.720;7.296;2023-05-02T14:55:22;4.73;;;2.40;;
4397;SDS011;2213;49.720;7.296;2023-05-02T14:57:54;2.93;;;2.17;;
4397;SDS011;2213;49.720;7.296;2023-05-02T15:00:25;3.90;;;2.40;;
4397;SDS011;2213;49.720;7.296;2023-05-02T15:02:54;2.53;;;2.03;;
4397;SDS011;2213;49.720;7.296;2023-05-02T15:05:24;2.73;;;2.23;;
4397;SDS011;2213;49.720;7.296;2023-05-02T15:07:55;2.37;;;2.10;;
4397;SDS011;2213;49.720;7.296;2023-05-02T15:10:24;2.90;;;2.00;;
4397;SDS011;2213;49.720;7.296;2023-05-02T15:12:56;4.67;;;2.23;;
4397;SDS011;2213;49.720;7.296;2023-05-02T15:15:27;6.27;;;2.10;;
4397;SDS011;2213;49.720;7.296;2023-05-02T15:17:57;2.63;;;1.83;;
4397;SDS011;2213;49.720;7.296;2023-05-02T15:20:27;2.13;;;1.57;;
4397;SDS011;2213;49.720;7.296;2023-05-02T15:22:57;6.30;;;4.07;;
4397;SDS011;2213;49.720;7.296;2023-05-02T15:25:29;3.17;;;1.97;;
4397;SDS011;2213;49.720;7.296;2023-05-02T15:28:01;2.30;;;1.50;;
4397;SDS011;2213;49.720;7.296;2023-05-02T15:30:31;2.27;;;1.77;;
4397;SDS011;2213;49.720;7.296;2023-05-02T15:33:01;2.83;;;2.00;;
4397;SDS011;2213;49.720;7.296;2023-05-02T15:35:31;6.80;;;1.97;;
4397;SDS011;2213;49.720;7.296;2023-05-02T15:38:01;4.00;;;2.00;;
4397;SDS011;2213;49.720;7.296;2023-05-02T15:40:30;2.20;;;1.40;;
4397;SDS011;2213;49.720;7.296;2023-05-02T15:43:01;3.97;;;1.70;;
4397;SDS011;2213;49.720;7.296;2023-05-02T15:45:31;2.40;;;1.53;;
4397;SDS011;2213;49.720;7.296;2023-05-02T15:48:02;2.70;;;2.10;;
4397;SDS011;2213;49.720;7.296;2023-05-02T15:50:31;3.83;;;2.20;;